Time;durP1;ratioP1;P1;durP2;ratioP2;P2;SDS_P1;SDS_P2;PMS_P1;PMS_P2;Temp;Humidity;BMP_temperature;BMP_pressure;BME280_temperature;BME280_humidity;BME280_pressure;Samples;Min_cycle;Max_cycle;Signal;HPM_P1;HPM_P2
2021/10/06 00:00:45;;;;;;;;;;;21.00;68.10;;;;;;4998479;28;1310;-69
2021/10/06 00:03:10;;;;;;;;;;;21.00;67.80;;;;;;5016245;28;1372;-69
2021/10/06 00:05:36;;;;;;;;;;;21.00;67.80;;;;;;5016058;28;1100;-69
2021/10/06 00:08:01;;;;;;;;;;;20.90;67.70;;;;;;5016231;28;1298;-69
2021/10/06 00:10:26;;;;;;;;;;;21.00;67.80;;;;;;4998272;28;1370;-69
2021/10/06 00:12:52;;;;;;;;;;;21.00;67.80;;;;;;4998545;28;1340;-69
2021/10/06 00:15:17;;;;;;;;;;;21.00;67.90;;;;;;5015939;28;1400;-69
2021/10/06 00:17:43;;;;;;;;;;;21.00;67.90;;;;;;5015962;28;1898;-69
2021/10/06 00:20:09;;;;;;;;;;;21.00;67.90;;;;;;5015666;28;1389;-69
2021/10/06 00:22:35;;;;;;;;;;;20.90;67.90;;;;;;5015806;28;1131;-69
2021/10/06 00:25:00;;;;;;;;;;;20.90;67.90;;;;;;5015808;28;1340;-69
2021/10/06 00:27:26;;;;;;;;;;;20.90;67.90;;;;;;5011159;28;1283;-69
2021/10/06 00:29:51;;;;;;;;;;;20.90;67.90;;;;;;5015763;28;1360;-70
2021/10/06 00:32:17;;;;;;;;;;;20.90;67.90;;;;;;5015758;28;1505;-70
2021/10/06 00:34:42;;;;;;;;;;;20.90;67.90;;;;;;5015710;28;1261;-69
2021/10/06 00:37:07;;;;;;;;;;;20.90;68.00;;;;;;5015516;28;1902;-69
2021/10/06 00:39:33;;;;;;;;;;;20.90;68.00;;;;;;5015587;28;1243;-69
2021/10/06 00:41:58;;;;;;;;;;;20.90;68.00;;;;;;4997722;28;1315;-69
2021/10/06 00:44:24;;;;;;;;;;;20.90;68.00;;;;;;5015514;28;1273;-69
2021/10/06 00:46:49;;;;;;;;;;;20.90;68.00;;;;;;5010012;28;1272;-70
2021/10/06 00:49:15;;;;;;;;;;;20.90;68.10;;;;;;4997833;28;1288;-69
2021/10/06 00:51:40;;;;;;;;;;;20.90;68.00;;;;;;5014976;28;1309;-69
2021/10/06 00:54:06;;;;;;;;;;;20.90;68.10;;;;;;4997887;28;1295;-69
2021/10/06 00:56:31;;;;;;;;;;;20.90;68.10;;;;;;5015404;28;1082;-70
2021/10/06 00:58:57;;;;;;;;;;;20.90;68.10;;;;;;5015237;28;1902;-70
2021/10/06 01:01:22;;;;;;;;;;;20.90;68.10;;;;;;4997492;28;1350;-70
2021/10/06 01:03:48;;;;;;;;;;;20.90;68.20;;;;;;5015062;28;1302;-69
2021/10/06 01:06:14;;;;;;;;;;;20.90;68.10;;;;;;4997537;28;1319;-70
2021/10/06 01:08:39;;;;;;;;;;;20.90;68.20;;;;;;5015097;28;1045;-70
2021/10/06 01:11:04;;;;;;;;;;;20.90;68.20;;;;;;4997426;28;1346;-70
2021/10/06 01:13:30;;;;;;;;;;;20.90;68.20;;;;;;5015185;28;1279;-69
2021/10/06 01:15:55;;;;;;;;;;;20.90;68.20;;;;;;5014960;28;1341;-69
2021/10/06 01:18:21;;;;;;;;;;;20.80;68.20;;;;;;5014807;28;1898;-69
2021/10/06 01:20:46;;;;;;;;;;;20.80;68.20;;;;;;5014357;28;1349;-69
2021/10/06 01:23:13;;;;;;;;;;;20.80;68.30;;;;;;5015055;28;1320;-69
2021/10/06 01:25:38;;;;;;;;;;;20.90;68.30;;;;;;5014817;28;1321;-69
2021/10/06 01:28:04;;;;;;;;;;;20.80;68.30;;;;;;5009876;28;1173;-69
2021/10/06 01:30:29;;;;;;;;;;;20.80;68.20;;;;;;5014365;28;1270;-69
2021/10/06 01:32:54;;;;;;;;;;;20.80;68.30;;;;;;5015084;28;1131;-69
2021/10/06 01:35:20;;;;;;;;;;;20.80;68.30;;;;;;5014357;28;1286;-70
2021/10/06 01:37:45;;;;;;;;;;;20.80;68.30;;;;;;5014933;28;1955;-69
2021/10/06 01:40:12;;;;;;;;;;;20.80;68.30;;;;;;5013453;28;1234;-70
2021/10/06 01:42:38;;;;;;;;;;;20.80;68.30;;;;;;5014937;28;1263;-70
2021/10/06 01:45:03;;;;;;;;;;;20.80;68.30;;;;;;4996874;28;1354;-69
2021/10/06 01:47:29;;;;;;;;;;;20.80;68.40;;;;;;5009095;28;1127;-70
2021/10/06 01:49:54;;;;;;;;;;;20.80;68.40;;;;;;5013824;28;1249;-70
2021/10/06 01:52:20;;;;;;;;;;;20.80;68.40;;;;;;5014159;28;1438;-70
2021/10/06 01:54:46;;;;;;;;;;;20.80;68.40;;;;;;5014171;28;1152;-70
2021/10/06 01:57:11;;;;;;;;;;;20.80;68.40;;;;;;5014237;28;1961;-70
2021/10/06 01:59:37;;;;;;;;;;;20.80;68.40;;;;;;5014250;28;1241;-70
2021/10/06 02:02:02;;;;;;;;;;;20.80;68.40;;;;;;5013817;28;1333;-70
2021/10/06 02:04:28;;;;;;;;;;;20.80;68.40;;;;;;5013837;28;1367;-70
2021/10/06 02:06:53;;;;;;;;;;;20.80;68.40;;;;;;5014087;28;1133;-70
2021/10/06 02:09:18;;;;;;;;;;;20.80;68.50;;;;;;5013968;28;1084;-69
2021/10/06 02:11:44;;;;;;;;;;;20.80;68.50;;;;;;5013539;28;1306;-70
2021/10/06 02:14:09;;;;;;;;;;;20.80;68.50;;;;;;5014092;28;1275;-70
2021/10/06 02:16:35;;;;;;;;;;;20.80;68.50;;;;;;5013863;28;1318;-70
2021/10/06 02:19:00;;;;;;;;;;;20.80;68.50;;;;;;5013533;28;1957;-69
2021/10/06 02:21:26;;;;;;;;;;;20.80;68.50;;;;;;5013558;28;1320;-69
2021/10/06 02:23:51;;;;;;;;;;;20.80;68.50;;;;;;5013868;28;1076;-70
2021/10/06 02:26:16;;;;;;;;;;;20.80;68.60;;;;;;5013766;28;1365;-70
2021/10/06 02:28:42;;;;;;;;;;;20.80;68.60;;;;;;5008446;28;1214;-70
2021/10/06 02:31:07;;;;;;;;;;;20.80;68.60;;;;;;5013532;28;1388;-69
2021/10/06 02:33:33;;;;;;;;;;;20.80;68.60;;;;;;5013431;28;1347;-70
2021/10/06 02:35:58;;;;;;;;;;;20.80;68.60;;;;;;5013489;28;1269;-70
2021/10/06 02:38:24;;;;;;;;;;;20.80;68.60;;;;;;5013652;28;2031;-70
2021/10/06 02:40:49;;;;;;;;;;;20.80;68.60;;;;;;5013228;28;1324;-70
2021/10/06 02:43:14;;;;;;;;;;;20.80;68.60;;;;;;5013569;28;1061;-70
2021/10/06 02:45:40;;;;;;;;;;;20.80;68.60;;;;;;5013421;28;1249;-70
2021/10/06 02:48:05;;;;;;;;;;;20.80;68.60;;;;;;5028423;28;1644;-70
2021/10/06 02:50:31;;;;;;;;;;;20.80;68.60;;;;;;5012788;28;1334;-70
2021/10/06 02:53:16;;;;;;;;;;;20.70;68.60;;;;;;4995058;28;1385;-70
2021/10/06 02:55:42;;;;;;;;;;;20.70;68.60;;;;;;5012700;28;1311;-70
2021/10/06 02:58:07;;;;;;;;;;;20.70;68.60;;;;;;5013578;28;1906;-69
2021/10/06 03:00:33;;;;;;;;;;;20.70;68.60;;;;;;5027941;28;1416;-70
2021/10/06 03:02:58;;;;;;;;;;;20.70;68.70;;;;;;5013107;28;1092;-70
2021/10/06 03:05:24;;;;;;;;;;;20.70;68.60;;;;;;5013123;28;1295;-70
2021/10/06 03:07:49;;;;;;;;;;;20.80;68.70;;;;;;5013245;28;1292;-69
2021/10/06 03:10:14;;;;;;;;;;;20.80;68.70;;;;;;5012733;28;1357;-70
2021/10/06 03:12:40;;;;;;;;;;;20.80;68.80;;;;;;5013209;28;1308;-70
2021/10/06 03:15:06;;;;;;;;;;;20.80;68.70;;;;;;4995272;28;1286;-70
2021/10/06 03:17:31;;;;;;;;;;;20.80;68.80;;;;;;5012978;28;1906;-71
2021/10/06 03:19:56;;;;;;;;;;;20.80;68.80;;;;;;5012641;28;1281;-70
2021/10/06 03:22:22;;;;;;;;;;;20.80;68.80;;;;;;5012940;28;1309;-69
2021/10/06 03:24:47;;;;;;;;;;;20.80;68.80;;;;;;5012849;28;1451;-70
2021/10/06 03:27:16;;;;;;;;;;;20.70;68.70;;;;;;5012951;28;1308;-70
2021/10/06 03:29:41;;;;;;;;;;;20.80;68.80;;;;;;5012432;28;1370;-69
2021/10/06 03:32:07;;;;;;;;;;;20.70;68.70;;;;;;5013048;28;1356;-70
2021/10/06 03:34:32;;;;;;;;;;;20.70;68.80;;;;;;5012725;28;1336;-70
2021/10/06 03:36:57;;;;;;;;;;;20.70;68.80;;;;;;5012884;28;1388;-70
2021/10/06 03:39:23;;;;;;;;;;;20.70;68.80;;;;;;5012634;28;1961;-70
2021/10/06 03:41:48;;;;;;;;;;;20.70;68.80;;;;;;5012434;28;1269;-70
2021/10/06 03:44:14;;;;;;;;;;;20.70;68.80;;;;;;5012598;28;1306;-70
2021/10/06 03:46:39;;;;;;;;;;;20.70;68.80;;;;;;5007976;28;1267;-70
2021/10/06 03:49:05;;;;;;;;;;;20.70;68.80;;;;;;5012448;28;1363;-69
2021/10/06 03:51:30;;;;;;;;;;;20.70;69.20;;;;;;5012509;28;1333;-70
2021/10/06 03:53:55;;;;;;;;;;;20.70;68.80;;;;;;5012486;28;1246;-70
2021/10/06 03:56:21;;;;;;;;;;;20.70;68.80;;;;;;5012845;28;1060;-70
2021/10/06 03:58:46;;;;;;;;;;;20.70;68.80;;;;;;5012539;28;1910;-71
2021/10/06 04:01:12;;;;;;;;;;;20.70;68.90;;;;;;5012314;28;1196;-70
2021/10/06 04:03:37;;;;;;;;;;;20.70;68.80;;;;;;5014399;28;1325;-70
2021/10/06 04:06:03;;;;;;;;;;;20.70;68.90;;;;;;4998781;28;1288;-70
2021/10/06 04:08:28;;;;;;;;;;;20.70;68.90;;;;;;5016421;28;1384;-69
2021/10/06 04:10:54;;;;;;;;;;;20.70;68.90;;;;;;5015836;28;1328;-70
2021/10/06 04:13:19;;;;;;;;;;;20.70;68.90;;;;;;5016260;28;1310;-71
2021/10/06 04:15:44;;;;;;;;;;;20.70;68.90;;;;;;5015900;28;1326;-72
2021/10/06 04:18:10;;;;;;;;;;;20.70;68.90;;;;;;5016110;28;1965;-72
2021/10/06 04:20:36;;;;;;;;;;;20.70;68.90;;;;;;5015775;28;1304;-71
2021/10/06 04:23:01;;;;;;;;;;;20.70;68.90;;;;;;4998384;28;1333;-71
2021/10/06 04:25:27;;;;;;;;;;;20.70;68.90;;;;;;5016135;28;1336;-72
2021/10/06 04:27:52;;;;;;;;;;;20.70;68.90;;;;;;4998360;28;1101;-72
2021/10/06 04:30:18;;;;;;;;;;;20.70;69.00;;;;;;4997841;28;1328;-71
2021/10/06 04:32:43;;;;;;;;;;;20.70;68.90;;;;;;4998335;28;1408;-72
2021/10/06 04:35:09;;;;;;;;;;;20.70;69.00;;;;;;4998229;28;1294;-71
2021/10/06 04:37:34;;;;;;;;;;;20.70;68.90;;;;;;5015731;28;1898;-71
2021/10/06 04:40:04;;;;;;;;;;;20.70;68.90;;;;;;5015117;28;1280;-70
2021/10/06 04:42:29;;;;;;;;;;;20.70;68.90;;;;;;5015575;28;1348;-71
2021/10/06 04:44:55;;;;;;;;;;;20.70;68.90;;;;;;5015389;28;1382;-71
2021/10/06 04:47:20;;;;;;;;;;;20.70;68.80;;;;;;5009945;28;1338;-70
2021/10/06 04:49:45;;;;;;;;;;;20.80;68.90;;;;;;5015414;28;1316;-71
2021/10/06 04:52:11;;;;;;;;;;;20.80;68.80;;;;;;5015126;28;1268;-70
2021/10/06 04:54:36;;;;;;;;;;;20.80;68.70;;;;;;4997846;28;1395;-70
2021/10/06 04:57:02;;;;;;;;;;;20.80;68.60;;;;;;5015422;28;1314;-71
2021/10/06 04:59:27;;;;;;;;;;;20.80;68.60;;;;;;5015136;28;1942;-71
2021/10/06 05:01:53;;;;;;;;;;;20.80;68.50;;;;;;5014979;28;1427;-70
2021/10/06 05:04:18;;;;;;;;;;;20.80;68.40;;;;;;5015196;28;1051;-71
2021/10/06 05:06:43;;;;;;;;;;;20.90;68.40;;;;;;5015253;28;1201;-70
2021/10/06 05:09:09;;;;;;;;;;;20.90;68.30;;;;;;5015249;28;1104;-70
2021/10/06 05:11:34;;;;;;;;;;;20.90;68.30;;;;;;5014817;28;1310;-71
2021/10/06 05:14:00;;;;;;;;;;;20.90;68.20;;;;;;5014624;28;1287;-70
2021/10/06 05:16:25;;;;;;;;;;;20.90;68.10;;;;;;5014293;28;1322;-70
2021/10/06 05:18:51;;;;;;;;;;;20.90;68.10;;;;;;4997502;28;1955;-70
2021/10/06 05:21:16;;;;;;;;;;;20.90;68.10;;;;;;4996969;28;1358;-71
2021/10/06 05:23:42;;;;;;;;;;;20.90;68.00;;;;;;5014896;28;1304;-70
2021/10/06 05:26:07;;;;;;;;;;;21.00;68.10;;;;;;5014772;28;1251;-71
2021/10/06 05:28:33;;;;;;;;;;;21.00;68.00;;;;;;5009922;28;1179;-71
2021/10/06 05:30:58;;;;;;;;;;;21.00;68.00;;;;;;4996969;28;1406;-70
2021/10/06 05:33:23;;;;;;;;;;;21.00;68.00;;;;;;5014821;28;1244;-71
2021/10/06 05:35:49;;;;;;;;;;;21.00;67.90;;;;;;4997246;28;1385;-71
2021/10/06 05:38:14;;;;;;;;;;;21.00;67.90;;;;;;5014534;28;1906;-70
2021/10/06 05:40:40;;;;;;;;;;;21.00;67.80;;;;;;4992074;28;1383;-70
2021/10/06 05:43:09;;;;;;;;;;;21.00;67.80;;;;;;4998691;28;1937;-69
2021/10/06 05:45:34;;;;;;;;;;;21.00;67.80;;;;;;5004322;28;1096;-70
2021/10/06 05:48:00;;;;;;;;;;;21.00;67.70;;;;;;5009527;28;1118;-70
2021/10/06 05:50:25;;;;;;;;;;;21.00;67.70;;;;;;4995766;28;1629;-69
2021/10/06 05:52:51;;;;;;;;;;;21.00;67.70;;;;;;5013616;28;1421;-70
2021/10/06 05:55:16;;;;;;;;;;;21.00;67.70;;;;;;5013051;28;1233;-69
2021/10/06 05:57:41;;;;;;;;;;;21.10;67.70;;;;;;5013186;28;1938;-69
2021/10/06 06:00:07;;;;;;;;;;;21.10;67.70;;;;;;5006854;28;1894;-69
2021/10/06 06:02:32;;;;;;;;;;;21.10;67.60;;;;;;4984195;28;1168;-68
2021/10/06 06:04:58;;;;;;;;;;;21.10;67.40;;;;;;5012005;28;1923;-68
2021/10/06 06:07:23;;;;;;;;;;;21.10;66.50;;;;;;5009268;28;1162;-69
2021/10/06 06:09:49;;;;;;;;;;;21.10;65.40;;;;;;5003366;28;1296;-68
2021/10/06 06:12:14;;;;;;;;;;;21.10;66.30;;;;;;5006558;28;1179;-68
2021/10/06 06:14:40;;;;;;;;;;;21.10;65.20;;;;;;5012970;28;1395;-68
2021/10/06 06:17:06;;;;;;;;;;;21.10;65.80;;;;;;5013039;28;1330;-69
2021/10/06 06:19:31;;;;;;;;;;;21.10;65.30;;;;;;5012847;28;1971;-68
2021/10/06 06:21:57;;;;;;;;;;;21.10;65.00;;;;;;5012404;28;1270;-68
2021/10/06 06:24:22;;;;;;;;;;;21.10;64.40;;;;;;5012899;28;1285;-69
2021/10/06 06:26:48;;;;;;;;;;;21.10;63.90;;;;;;5010930;28;1244;-71
2021/10/06 06:29:13;;;;;;;;;;;21.10;63.40;;;;;;5010986;28;1282;-69
2021/10/06 06:31:38;;;;;;;;;;;21.10;64.10;;;;;;5013305;28;1275;-69
2021/10/06 06:34:04;;;;;;;;;;;21.10;63.60;;;;;;5013709;28;1713;-68
2021/10/06 06:36:29;;;;;;;;;;;21.10;63.70;;;;;;5013829;28;1077;-69
2021/10/06 06:38:55;;;;;;;;;;;21.10;63.60;;;;;;4995781;28;1949;-68
2021/10/06 06:41:20;;;;;;;;;;;21.10;62.60;;;;;;5012810;28;1380;-68
2021/10/06 06:43:46;;;;;;;;;;;21.10;63.00;;;;;;5013340;28;1300;-69
2021/10/06 06:46:11;;;;;;;;;;;21.10;63.20;;;;;;5011883;28;1346;-69
2021/10/06 06:48:36;;;;;;;;;;;21.10;63.00;;;;;;5008891;28;1339;-69
2021/10/06 06:51:02;;;;;;;;;;;21.10;63.80;;;;;;5013033;28;1325;-69
2021/10/06 06:53:27;;;;;;;;;;;21.10;62.40;;;;;;5013274;28;1237;-69
2021/10/06 06:55:53;;;;;;;;;;;21.10;62.20;;;;;;4995802;28;1403;-70
2021/10/06 06:58:19;;;;;;;;;;;21.10;62.30;;;;;;5013138;28;1964;-70
2021/10/06 07:00:44;;;;;;;;;;;21.10;61.80;;;;;;5012831;28;1272;-70
2021/10/06 07:03:10;;;;;;;;;;;21.10;61.60;;;;;;5013205;28;1302;-70
2021/10/06 07:05:35;;;;;;;;;;;21.10;61.60;;;;;;5013193;28;1275;-70
2021/10/06 07:08:02;;;;;;;;;;;21.10;61.60;;;;;;5013144;28;1383;-70
2021/10/06 07:10:28;;;;;;;;;;;21.10;61.70;;;;;;5012742;28;1350;-70
2021/10/06 07:12:53;;;;;;;;;;;21.10;62.00;;;;;;5013159;28;1282;-70
2021/10/06 07:15:19;;;;;;;;;;;21.10;62.40;;;;;;5013059;28;1279;-70
2021/10/06 07:17:44;;;;;;;;;;;21.10;62.50;;;;;;5013077;28;1898;-70
2021/10/06 07:20:10;;;;;;;;;;;21.20;62.70;;;;;;5012685;28;1271;-70
2021/10/06 07:22:35;;;;;;;;;;;21.20;62.70;;;;;;5012947;28;1360;-70
2021/10/06 07:25:01;;;;;;;;;;;21.30;62.80;;;;;;5012881;28;1326;-70
2021/10/06 07:27:26;;;;;;;;;;;21.30;62.80;;;;;;4992967;28;1291;-70
2021/10/06 07:29:52;;;;;;;;;;;21.40;62.80;;;;;;5010172;28;1377;-70
2021/10/06 07:32:17;;;;;;;;;;;21.40;63.10;;;;;;5010700;28;1440;-69
2021/10/06 07:34:43;;;;;;;;;;;21.50;63.60;;;;;;5010448;28;1407;-70
2021/10/06 07:37:08;;;;;;;;;;;21.50;63.70;;;;;;5010457;28;1568;-71
2021/10/06 07:39:34;;;;;;;;;;;21.60;63.80;;;;;;4996868;28;1965;-70
2021/10/06 07:41:59;;;;;;;;;;;21.60;63.80;;;;;;5015161;28;1615;-69
2021/10/06 07:44:24;;;;;;;;;;;21.60;63.70;;;;;;5016711;28;1346;-70
2021/10/06 07:46:50;;;;;;;;;;;21.70;63.80;;;;;;4996484;28;1691;-69
2021/10/06 07:49:15;;;;;;;;;;;21.70;63.80;;;;;;5015848;28;1389;-70
2021/10/06 07:51:41;;;;;;;;;;;21.80;64.00;;;;;;4997995;28;1403;-70
2021/10/06 07:54:06;;;;;;;;;;;21.80;64.00;;;;;;5016490;28;1624;-69
2021/10/06 07:56:32;;;;;;;;;;;21.80;63.90;;;;;;5015497;28;1244;-69
2021/10/06 07:58:57;;;;;;;;;;;21.80;64.00;;;;;;5015855;28;1902;-70
2021/10/06 08:01:22;;;;;;;;;;;21.80;64.00;;;;;;5015429;28;1619;-70
2021/10/06 08:03:48;;;;;;;;;;;21.90;64.20;;;;;;5016167;28;1653;-70
2021/10/06 08:06:13;;;;;;;;;;;21.80;64.30;;;;;;5016045;28;1699;-71
2021/10/06 08:08:39;;;;;;;;;;;21.80;64.20;;;;;;5015971;28;1680;-70
2021/10/06 08:11:04;;;;;;;;;;;21.90;64.50;;;;;;5014860;28;1652;-70
2021/10/06 08:13:30;;;;;;;;;;;21.90;64.60;;;;;;5031493;28;1641;-70
2021/10/06 08:15:55;;;;;;;;;;;21.90;64.60;;;;;;5015727;28;1817;-71
2021/10/06 08:18:20;;;;;;;;;;;21.90;64.70;;;;;;5015581;28;1993;-70
2021/10/06 08:20:46;;;;;;;;;;;21.90;64.70;;;;;;5015674;28;1411;-71
2021/10/06 08:23:12;;;;;;;;;;;21.90;64.80;;;;;;5016146;28;1369;-70
2021/10/06 08:25:37;;;;;;;;;;;21.90;64.80;;;;;;5015242;28;1384;-70
2021/10/06 08:28:03;;;;;;;;;;;21.90;64.90;;;;;;5009981;28;1808;-69
2021/10/06 08:30:29;;;;;;;;;;;21.90;64.90;;;;;;5014665;28;1203;-69
2021/10/06 08:32:54;;;;;;;;;;;21.90;64.90;;;;;;5015392;28;1389;-68
2021/10/06 08:35:20;;;;;;;;;;;21.90;65.00;;;;;;5031265;28;1403;-67
2021/10/06 08:37:45;;;;;;;;;;;21.90;65.00;;;;;;5015717;28;1887;-69
2021/10/06 08:40:10;;;;;;;;;;;21.90;65.10;;;;;;5014916;28;1388;-68
2021/10/06 08:42:36;;;;;;;;;;;21.90;65.10;;;;;;5015788;28;1774;-68
2021/10/06 08:45:02;;;;;;;;;;;21.90;65.20;;;;;;4997551;28;1674;-69
2021/10/06 08:47:27;;;;;;;;;;;21.90;65.30;;;;;;4997365;28;1675;-68
2021/10/06 08:49:53;;;;;;;;;;;21.90;65.40;;;;;;5013064;28;1650;-68
2021/10/06 08:52:18;;;;;;;;;;;21.90;65.40;;;;;;4996945;28;1766;-68
2021/10/06 08:54:44;;;;;;;;;;;21.90;65.50;;;;;;5014495;28;1617;-69
2021/10/06 08:57:14;;;;;;;;;;;21.90;65.50;;;;;;5014687;28;1778;-67
2021/10/06 08:59:41;;;;;;;;;;;21.90;65.60;;;;;;4998191;28;1919;-69
2021/10/06 09:02:11;;;;;;;;;;;21.90;65.70;;;;;;5013066;28;2416;-67
2021/10/06 09:04:36;;;;;;;;;;;21.90;65.80;;;;;;5002637;28;2075;-72
2021/10/06 09:07:02;;;;;;;;;;;21.90;65.80;;;;;;5005875;28;2075;-69
2021/10/06 09:09:28;;;;;;;;;;;21.90;65.90;;;;;;4993308;28;1730;-69
2021/10/06 09:11:54;;;;;;;;;;;21.90;66.00;;;;;;4996891;28;1341;-70
2021/10/06 09:14:19;;;;;;;;;;;21.90;66.10;;;;;;5014328;28;1598;-69
2021/10/06 09:16:45;;;;;;;;;;;21.90;66.10;;;;;;5013739;28;1823;-69
2021/10/06 09:19:10;;;;;;;;;;;21.80;66.10;;;;;;5015015;28;1910;-69
2021/10/06 09:21:55;;;;;;;;;;;21.80;66.20;;;;;;4997187;28;1385;-69
2021/10/06 09:24:20;;;;;;;;;;;21.80;66.20;;;;;;5015059;28;1590;-69
2021/10/06 09:26:46;;;;;;;;;;;21.80;66.30;;;;;;5013561;28;1393;-69
2021/10/06 09:29:21;;;;;;;;;;;21.80;66.50;;;;;;5011057;28;1341;-70
2021/10/06 09:31:46;;;;;;;;;;;21.80;66.50;;;;;;5010998;28;2123;-69
2021/10/06 09:34:12;;;;;;;;;;;21.80;66.60;;;;;;5014833;28;1398;-69
2021/10/06 09:36:37;;;;;;;;;;;21.80;66.70;;;;;;5014539;28;1718;-69
2021/10/06 09:39:04;;;;;;;;;;;21.80;66.80;;;;;;5006422;28;1953;-69
2021/10/06 09:41:45;;;;;;;;;;;21.80;66.80;;;;;;4996665;28;1545;-68
2021/10/06 09:44:15;;;;;;;;;;;21.80;67.30;;;;;;4996476;28;1665;-70
2021/10/06 09:46:45;;;;;;;;;;;21.70;66.90;;;;;;5009234;28;1240;-68
2021/10/06 09:49:27;;;;;;;;;;;21.80;67.00;;;;;;5014461;28;1733;-69
2021/10/06 09:51:53;;;;;;;;;;;21.80;67.10;;;;;;5013972;28;1381;-69
2021/10/06 09:54:18;;;;;;;;;;;21.70;67.10;;;;;;5014532;28;1285;-69
2021/10/06 09:56:45;;;;;;;;;;;21.70;67.10;;;;;;5014574;28;1515;-70
2021/10/06 09:59:11;;;;;;;;;;;21.70;67.20;;;;;;5014484;28;1906;-68
2021/10/06 10:01:39;;;;;;;;;;;21.70;67.30;;;;;;4995823;28;1529;-69
2021/10/06 10:04:08;;;;;;;;;;;21.70;67.40;;;;;;4997399;28;1596;-69
2021/10/06 10:06:33;;;;;;;;;;;21.70;67.40;;;;;;4996686;28;1382;-69
2021/10/06 10:09:02;;;;;;;;;;;21.70;67.50;;;;;;5014338;28;1667;-70
2021/10/06 10:11:28;;;;;;;;;;;21.70;67.50;;;;;;4996257;28;1578;-69
2021/10/06 10:13:54;;;;;;;;;;;21.70;67.60;;;;;;4996588;28;1228;-70
2021/10/06 10:16:19;;;;;;;;;;;21.70;67.70;;;;;;5013894;28;1662;-69
2021/10/06 10:18:45;;;;;;;;;;;21.70;67.70;;;;;;5014095;28;1906;-70
2021/10/06 10:21:11;;;;;;;;;;;21.70;67.70;;;;;;5013697;28;1582;-70
2021/10/06 10:23:36;;;;;;;;;;;21.70;67.80;;;;;;4996591;28;1686;-69
2021/10/06 10:26:02;;;;;;;;;;;21.70;67.80;;;;;;4996266;28;1637;-69
2021/10/06 10:28:37;;;;;;;;;;;21.60;67.80;;;;;;4996056;28;1470;-69
2021/10/06 10:31:02;;;;;;;;;;;21.70;68.70;;;;;;4996062;28;1669;-69
2021/10/06 10:33:38;;;;;;;;;;;21.70;68.10;;;;;;4996320;28;1356;-70
2021/10/06 10:36:03;;;;;;;;;;;21.60;68.10;;;;;;5013806;28;1440;-69
2021/10/06 10:38:35;;;;;;;;;;;21.70;68.20;;;;;;4996192;28;1910;-69
2021/10/06 10:41:02;;;;;;;;;;;21.70;68.30;;;;;;5000496;28;1559;-68
2021/10/06 10:43:31;;;;;;;;;;;21.60;68.30;;;;;;5013825;28;1752;-69
2021/10/06 10:45:59;;;;;;;;;;;21.70;69.10;;;;;;5013635;28;1639;-69
2021/10/06 10:48:28;;;;;;;;;;;21.70;68.40;;;;;;5008047;28;1526;-69
2021/10/06 10:50:53;;;;;;;;;;;21.60;68.30;;;;;;5013257;28;1385;-69
2021/10/06 10:53:19;;;;;;;;;;;21.60;68.40;;;;;;5013462;28;1560;-70
2021/10/06 10:55:45;;;;;;;;;;;21.60;68.40;;;;;;5013314;28;1663;-70
2021/10/06 10:58:26;;;;;;;;;;;21.60;68.50;;;;;;5013422;28;1887;-70
2021/10/06 11:00:51;;;;;;;;;;;21.60;68.60;;;;;;5012997;28;1360;-69
2021/10/06 11:03:16;;;;;;;;;;;21.60;68.60;;;;;;5013368;28;1656;-69
2021/10/06 11:05:45;;;;;;;;;;;21.60;68.70;;;;;;4995756;28;1626;-69
2021/10/06 11:08:24;;;;;;;;;;;21.60;68.80;;;;;;5013230;28;1406;-70
2021/10/06 11:11:08;;;;;;;;;;;21.60;68.80;;;;;;5013028;28;1355;-70
2021/10/06 11:13:34;;;;;;;;;;;21.60;68.90;;;;;;5012394;28;1677;-69
2021/10/06 11:15:59;;;;;;;;;;;21.60;68.90;;;;;;5013130;28;1673;-69
2021/10/06 11:18:25;;;;;;;;;;;21.60;69.00;;;;;;5013023;28;1898;-69
2021/10/06 11:21:17;;;;;;;;;;;21.60;69.00;;;;;;5012540;28;1646;-69
2021/10/06 11:23:42;;;;;;;;;;;21.50;69.00;;;;;;4989957;28;1355;-69
2021/10/06 11:26:11;;;;;;;;;;;21.60;69.10;;;;;;5013085;28;1669;-69
2021/10/06 11:28:40;;;;;;;;;;;21.60;69.10;;;;;;5006778;28;1501;-69
2021/10/06 11:31:05;;;;;;;;;;;21.60;69.00;;;;;;4994932;28;1657;-69
2021/10/06 11:33:31;;;;;;;;;;;21.60;69.10;;;;;;5013206;28;1687;-68
2021/10/06 11:36:09;;;;;;;;;;;21.60;69.00;;;;;;5013024;28;1632;-69
2021/10/06 11:38:34;;;;;;;;;;;21.60;69.00;;;;;;5013073;28;1959;-69
2021/10/06 11:41:00;;;;;;;;;;;21.60;69.00;;;;;;5012441;28;1615;-70
2021/10/06 11:43:25;;;;;;;;;;;21.60;69.00;;;;;;5012943;28;1598;-70
2021/10/06 11:45:51;;;;;;;;;;;21.60;69.00;;;;;;5012725;28;1652;-69
2021/10/06 11:48:16;;;;;;;;;;;21.60;69.00;;;;;;5007569;28;1427;-69
2021/10/06 11:50:43;;;;;;;;;;;21.70;69.10;;;;;;5012501;28;1795;-68
2021/10/06 11:53:09;;;;;;;;;;;21.70;69.10;;;;;;5012892;28;1367;-70
2021/10/06 11:55:36;;;;;;;;;;;21.60;69.00;;;;;;5012861;28;1426;-68
2021/10/06 11:58:01;;;;;;;;;;;21.70;69.10;;;;;;4995255;28;1911;-69
2021/10/06 12:00:26;;;;;;;;;;;21.70;69.20;;;;;;5012216;28;1387;-69
2021/10/06 12:02:56;;;;;;;;;;;21.60;69.30;;;;;;5012856;28;1634;-68
2021/10/06 12:05:21;;;;;;;;;;;21.60;69.40;;;;;;5012816;28;1318;-69
2021/10/06 12:07:47;;;;;;;;;;;21.60;67.90;;;;;;4995390;28;1601;-68
2021/10/06 12:10:12;;;;;;;;;;;21.50;66.40;;;;;;4995104;28;1697;-68
2021/10/06 12:12:39;;;;;;;;;;;21.50;65.70;;;;;;5012628;28;1666;-69
2021/10/06 12:15:05;;;;;;;;;;;21.50;65.30;;;;;;5012661;28;1289;-68
2021/10/06 12:17:34;;;;;;;;;;;21.40;64.70;;;;;;5012232;28;1895;-68
2021/10/06 12:20:00;;;;;;;;;;;21.40;65.10;;;;;;5011790;28;1538;-68
2021/10/06 12:22:30;;;;;;;;;;;21.40;64.40;;;;;;5017391;28;1423;-69
2021/10/06 12:24:56;;;;;;;;;;;21.40;64.00;;;;;;5011818;28;1934;-68
2021/10/06 12:27:29;;;;;;;;;;;21.30;63.90;;;;;;4995386;28;1652;-69
2021/10/06 12:30:06;;;;;;;;;;;21.30;63.50;;;;;;5015917;28;1374;-67
2021/10/06 12:32:32;;;;;;;;;;;21.30;62.60;;;;;;5015812;28;1645;-68
2021/10/06 12:35:04;;;;;;;;;;;21.30;62.20;;;;;;5015908;28;1265;-68
2021/10/06 12:37:29;;;;;;;;;;;21.20;62.40;;;;;;5012333;28;1986;-67
2021/10/06 12:39:55;;;;;;;;;;;21.20;61.90;;;;;;5015337;28;1731;-66
2021/10/06 12:42:21;;;;;;;;;;;21.20;61.70;;;;;;4998175;28;1685;-66
2021/10/06 12:44:47;;;;;;;;;;;21.20;61.90;;;;;;5014563;28;1657;-67
2021/10/06 12:47:19;;;;;;;;;;;21.20;61.40;;;;;;5009744;28;1390;-66
2021/10/06 12:49:45;;;;;;;;;;;21.20;61.30;;;;;;4998096;28;1442;-66
2021/10/06 12:52:10;;;;;;;;;;;21.20;61.90;;;;;;5000881;28;1666;-69
2021/10/06 12:54:36;;;;;;;;;;;21.20;60.00;;;;;;5010369;28;1612;-69
2021/10/06 12:57:02;;;;;;;;;;;21.10;61.20;;;;;;5015043;28;1704;-67
2021/10/06 12:59:31;;;;;;;;;;;21.10;60.40;;;;;;5012626;28;1930;-69
2021/10/06 13:01:57;;;;;;;;;;;21.10;60.70;;;;;;5010814;28;1591;-70
2021/10/06 13:04:22;;;;;;;;;;;21.10;61.10;;;;;;5010074;28;1176;-69
2021/10/06 13:06:48;;;;;;;;;;;21.10;59.90;;;;;;5007628;28;1372;-69
2021/10/06 13:09:14;;;;;;;;;;;21.10;60.20;;;;;;5008780;28;1256;-69
2021/10/06 13:11:40;;;;;;;;;;;21.10;59.90;;;;;;5012790;28;1317;-70
2021/10/06 13:14:05;;;;;;;;;;;21.10;60.10;;;;;;4997591;28;1396;-69
2021/10/06 13:16:31;;;;;;;;;;;21.10;60.20;;;;;;5014941;28;1361;-70
2021/10/06 13:18:56;;;;;;;;;;;21.00;60.00;;;;;;5030258;28;1902;-70
2021/10/06 13:21:22;;;;;;;;;;;21.00;59.70;;;;;;4996642;28;1276;-70
2021/10/06 13:23:48;;;;;;;;;;;21.00;59.90;;;;;;5014814;28;1281;-70
2021/10/06 13:26:13;;;;;;;;;;;21.00;59.60;;;;;;5014655;28;1333;-70
2021/10/06 13:28:38;;;;;;;;;;;21.00;59.60;;;;;;5009598;28;1096;-69
2021/10/06 13:31:04;;;;;;;;;;;21.00;59.60;;;;;;5010842;28;1858;-70
2021/10/06 13:33:30;;;;;;;;;;;21.00;59.80;;;;;;4989449;28;1306;-71
2021/10/06 13:35:55;;;;;;;;;;;21.00;59.70;;;;;;5013111;28;1077;-69
2021/10/06 13:38:20;;;;;;;;;;;21.00;59.50;;;;;;5014514;28;1905;-68
2021/10/06 13:40:46;;;;;;;;;;;21.00;59.20;;;;;;5013999;28;1315;-70
2021/10/06 13:43:12;;;;;;;;;;;21.00;59.50;;;;;;5014636;28;1288;-69
2021/10/06 13:45:37;;;;;;;;;;;20.90;58.90;;;;;;5013592;28;1275;-68
2021/10/06 13:48:02;;;;;;;;;;;20.90;59.50;;;;;;5012959;28;1301;-68
2021/10/06 13:50:28;;;;;;;;;;;20.90;59.30;;;;;;5013123;28;1361;-68
2021/10/06 13:52:56;;;;;;;;;;;20.90;59.20;;;;;;4996034;28;1592;-68
2021/10/06 13:55:21;;;;;;;;;;;20.90;59.60;;;;;;4994402;28;1149;-68
2021/10/06 13:57:47;;;;;;;;;;;20.90;59.30;;;;;;5009564;28;1965;-68
2021/10/06 14:00:12;;;;;;;;;;;20.90;59.70;;;;;;5013461;28;1525;-69
2021/10/06 14:02:38;;;;;;;;;;;20.90;59.40;;;;;;5013817;28;1277;-68
2021/10/06 14:05:03;;;;;;;;;;;20.90;59.40;;;;;;5013200;28;1349;-70
2021/10/06 14:07:29;;;;;;;;;;;20.90;59.50;;;;;;5013516;28;1227;-69
2021/10/06 14:09:54;;;;;;;;;;;20.90;59.50;;;;;;4995802;28;1519;-69
2021/10/06 14:12:20;;;;;;;;;;;20.90;59.20;;;;;;5014097;28;1349;-70
2021/10/06 14:14:45;;;;;;;;;;;20.90;59.30;;;;;;4996438;28;1175;-70
2021/10/06 14:17:11;;;;;;;;;;;20.90;59.40;;;;;;5013925;28;1257;-69
2021/10/06 14:19:36;;;;;;;;;;;20.80;58.90;;;;;;5013755;28;1887;-68
2021/10/06 14:22:02;;;;;;;;;;;20.80;59.30;;;;;;5012026;28;2094;-70
2021/10/06 14:24:27;;;;;;;;;;;20.90;59.10;;;;;;5013801;28;1113;-70